Archival Weather

Snohomish County (Paine Fld)

Everett, Washington (KPAE)

Report from: Sunday, November 5, 2023 3:53 AM PST
Current time: Thursday, June 20, 2024 11:34 PM PDT

Current weather – Weather history – Daily summaries
Weather forecast

Temperature11.1°C (52.0°F)
Dew point8.9°C (48.0°F)
Winds 13 kts (6.7 m/s, 15 mph) South (170°)
Peak wind 29 kts (14.9 m/s, 33.4 mph) South (180°) at 11:17
Visibility10 mi. (16.1 km)
Clouds Scattered clouds 7,500 ft. (2,286 m)
Ceiling: Overcast 9,500 ft. (2,896 m)
Altimeter29.85 in.Hg (1011 mB)
Precip last 24 hours0.38 in. (10 mm)
Relative humidity86 %
Density altitude-223 ft. (-68 m)
Sea-level pressure101.1 kPa (1011 mB, 29.85 in.Hg)
Max temp last 6 hours12.2°C (54.0°F)
Min temp last 6 hours11.1°C (52.0°F)
Remarks Fully automated report
Automated weather observing station with precipitation discriminator
Pressure rising more quickly
Flight conditions Visual Meteorological Conditions
Raw dataKPAE 051153Z AUTO 17013KT 10SM SCT075 OVC095 11/09 A2985 RMK AO2 PK WND 18029/1117 SLP109 70038 T01110089 10122 20111 53004
An error has occurred. This application may no longer respond until reloaded. Reload 🗙